createdAt,value
2017-12-16T00:00:36.816Z,90.98
2017-12-16T00:03:05.177Z,90.66
2017-12-16T00:05:33.839Z,90.67
2017-12-16T00:08:02.145Z,90.59
2017-12-16T00:10:30.504Z,90.48
2017-12-16T00:12:58.946Z,90.46
2017-12-16T00:15:27.301Z,90.01
2017-12-16T00:17:55.701Z,89.85
2017-12-16T00:20:24.086Z,89.96
2017-12-16T00:22:53.004Z,89.87
2017-12-16T00:25:21.327Z,88.72
2017-12-16T00:27:49.652Z,87.64
2017-12-16T00:30:17.953Z,87.82
2017-12-16T00:32:46.333Z,87.92
2017-12-16T00:35:14.686Z,88.56
2017-12-16T00:37:43.009Z,88.47
2017-12-16T00:40:11.354Z,88.94
2017-12-16T00:42:39.672Z,89.26
2017-12-16T00:45:08.158Z,89.09
2017-12-16T00:47:36.493Z,88.94
2017-12-16T00:50:04.817Z,88.36
2017-12-16T00:52:33.873Z,87.38
2017-12-16T00:55:02.180Z,86.78
2017-12-16T00:57:30.504Z,87.14
2017-12-16T00:59:58.858Z,87.70
2017-12-16T01:02:27.173Z,88.24
2017-12-16T01:04:56.559Z,89.13
2017-12-16T01:07:25.106Z,89.61
2017-12-16T01:09:53.432Z,89.54
2017-12-16T01:12:21.744Z,89.35
2017-12-16T01:14:50.576Z,89.05
2017-12-16T01:17:19.214Z,88.98
2017-12-16T01:19:47.546Z,87.88
2017-12-16T01:22:16.407Z,87.14
2017-12-16T01:24:44.756Z,86.82
2017-12-16T01:27:13.573Z,87.01
2017-12-16T01:32:18.578Z,87.75
2017-12-16T01:35:04.832Z,88.30
2017-12-16T01:37:50.765Z,88.86
2017-12-16T01:40:19.465Z,89.00
2017-12-16T01:42:47.806Z,88.12
2017-12-16T01:45:16.173Z,87.10
2017-12-16T01:47:45.074Z,86.74
2017-12-16T01:50:13.403Z,87.23
2017-12-16T01:52:41.737Z,87.14
2017-12-16T01:55:11.065Z,87.33
2017-12-16T01:57:39.891Z,87.54
2017-12-16T02:00:08.969Z,87.42
2017-12-16T02:02:38.245Z,86.99
2017-12-16T02:05:07.156Z,87.03
2017-12-16T02:07:35.585Z,87.55
2017-12-16T02:10:03.945Z,87.57
2017-12-16T02:12:33.024Z,88.11
2017-12-16T02:15:01.337Z,88.15
2017-12-16T02:17:29.658Z,88.06
2017-12-16T02:19:57.983Z,88.43
2017-12-16T02:22:26.319Z,88.16
2017-12-16T02:24:54.698Z,88.11
2017-12-16T02:27:23.024Z,88.30
2017-12-16T02:29:51.377Z,87.19
2017-12-16T02:32:19.720Z,86.39
2017-12-16T02:34:48.065Z,86.91
2017-12-16T02:37:16.548Z,87.04
2017-12-16T02:39:45.381Z,87.48
2017-12-16T02:42:14.193Z,87.69
2017-12-16T02:44:42.570Z,88.21
2017-12-16T02:47:10.904Z,88.49
2017-12-16T02:49:39.328Z,88.69
2017-12-16T02:52:07.602Z,88.75
2017-12-16T02:54:36.914Z,88.83
2017-12-16T02:57:05.635Z,88.38
2017-12-16T02:59:33.956Z,88.55
2017-12-16T03:02:02.378Z,88.30
2017-12-16T03:04:30.700Z,88.36
2017-12-16T03:06:58.999Z,88.33
2017-12-16T03:09:27.368Z,87.32
2017-12-16T03:11:56.019Z,86.55
2017-12-16T03:14:24.635Z,86.16
2017-12-16T03:16:53.791Z,86.11
2017-12-16T03:19:22.522Z,86.59
2017-12-16T03:21:50.898Z,86.22
2017-12-16T03:24:19.253Z,85.25
2017-12-16T03:26:47.572Z,84.55
2017-12-16T03:29:15.892Z,85.26
2017-12-16T03:31:44.262Z,86.05
2017-12-16T03:34:13.201Z,86.72
2017-12-16T03:36:41.512Z,85.74
2017-12-16T03:39:09.896Z,84.83
2017-12-16T03:41:38.727Z,84.66
2017-12-16T03:44:07.057Z,84.67
2017-12-16T03:46:36.368Z,84.26
2017-12-16T03:49:04.685Z,84.33
2017-12-16T03:51:33.047Z,84.28
2017-12-16T03:54:01.365Z,85.21
2017-12-16T03:56:29.687Z,86.37
2017-12-16T03:58:58.083Z,86.83
2017-12-16T04:01:26.424Z,87.03
2017-12-16T04:03:54.730Z,86.38
2017-12-16T04:06:23.105Z,86.57
2017-12-16T04:08:51.418Z,87.10
2017-12-16T04:11:20.277Z,87.41
2017-12-16T04:13:48.671Z,87.30
2017-12-16T04:16:16.988Z,86.37
2017-12-16T04:18:45.295Z,86.01
2017-12-16T04:21:13.664Z,85.72
2017-12-16T04:23:42.750Z,86.03
2017-12-16T04:26:12.028Z,86.96
2017-12-16T04:28:40.375Z,87.09
2017-12-16T04:31:08.676Z,86.59
2017-12-16T04:33:36.992Z,86.01
2017-12-16T04:36:05.803Z,85.72
2017-12-16T04:38:34.108Z,85.69
2017-12-16T04:41:02.466Z,85.67
2017-12-16T04:43:30.909Z,85.65
2017-12-16T04:45:59.225Z,85.57
2017-12-16T04:48:27.541Z,85.68
2017-12-16T04:50:55.875Z,85.80
2017-12-16T04:53:24.192Z,85.88
2017-12-16T04:55:53.297Z,85.30
2017-12-16T04:58:21.839Z,85.03
2017-12-16T05:00:50.137Z,85.14
2017-12-16T05:03:18.535Z,85.30
2017-12-16T05:05:46.860Z,86.42
2017-12-16T05:08:15.163Z,86.63
2017-12-16T05:10:43.526Z,86.78
2017-12-16T05:13:11.829Z,87.26
2017-12-16T05:15:40.147Z,87.46
2017-12-16T05:18:08.495Z,87.68
2017-12-16T05:20:36.808Z,86.91
2017-12-16T05:23:05.117Z,86.90
2017-12-16T05:25:33.499Z,87.34
2017-12-16T05:28:01.808Z,87.56
2017-12-16T05:30:30.127Z,87.43
2017-12-16T05:32:58.488Z,86.99
2017-12-16T05:35:27.622Z,86.75
2017-12-16T05:37:55.927Z,86.39
2017-12-16T05:40:24.244Z,86.03
2017-12-16T05:42:58.068Z,86.18
2017-12-16T05:45:27.114Z,86.27
2017-12-16T05:47:55.536Z,86.02
2017-12-16T05:50:23.844Z,86.63
2017-12-16T05:52:52.161Z,86.48
2017-12-16T05:55:20.517Z,86.39
2017-12-16T05:57:48.823Z,85.95
2017-12-16T06:00:17.124Z,86.38
2017-12-16T06:02:45.716Z,86.49
2017-12-16T06:05:14.549Z,86.48
2017-12-16T06:07:42.859Z,86.23
2017-12-16T06:10:12.525Z,85.90
2017-12-16T06:12:40.970Z,85.83
2017-12-16T06:15:09.281Z,87.10
2017-12-16T06:17:37.640Z,87.75
2017-12-16T06:20:05.949Z,87.93
2017-12-16T06:22:34.240Z,88.01
2017-12-16T06:25:02.847Z,87.63
2017-12-16T06:27:31.923Z,87.89
2017-12-16T06:30:00.253Z,88.29
2017-12-16T06:32:28.783Z,88.46
2017-12-16T06:34:57.110Z,88.76
2017-12-16T06:37:25.416Z,88.88
2017-12-16T06:39:53.760Z,89.22
2017-12-16T06:42:22.067Z,89.02
2017-12-16T06:44:50.380Z,88.95
2017-12-16T06:47:18.727Z,89.54
2017-12-16T06:49:47.050Z,89.31
2017-12-16T06:52:15.381Z,88.87
2017-12-16T06:54:43.775Z,89.09
2017-12-16T06:57:12.082Z,89.28
2017-12-16T06:59:41.164Z,89.80
2017-12-16T07:02:09.502Z,90.17
2017-12-16T07:04:37.814Z,90.39
2017-12-16T07:07:06.153Z,90.59
2017-12-16T07:09:34.560Z,91.32
2017-12-16T07:12:02.882Z,91.64
2017-12-16T07:14:31.232Z,91.72
2017-12-16T07:16:59.583Z,91.60
2017-12-16T07:19:27.884Z,91.60
2017-12-16T07:21:56.188Z,91.46
2017-12-16T07:24:24.549Z,91.11
2017-12-16T07:26:53.615Z,90.75
2017-12-16T07:29:21.928Z,90.48
2017-12-16T07:31:51.044Z,90.27
2017-12-16T07:34:19.349Z,90.24
2017-12-16T07:36:47.971Z,90.34
2017-12-16T07:39:16.324Z,91.14
2017-12-16T07:41:44.636Z,91.56
2017-12-16T07:44:13.022Z,92.11
2017-12-16T07:46:41.430Z,93.13
2017-12-16T07:49:11.082Z,93.57
2017-12-16T07:51:40.070Z,93.55
2017-12-16T07:54:09.052Z,93.44
2017-12-16T07:56:37.768Z,93.57
2017-12-16T07:59:06.648Z,93.60
2017-12-16T08:01:35.796Z,93.36
2017-12-16T08:04:04.572Z,93.00
2017-12-16T08:06:32.996Z,92.95
2017-12-16T08:09:01.366Z,92.66
2017-12-16T08:11:30.316Z,93.13
2017-12-16T08:13:59.267Z,93.38
2017-12-16T08:16:27.722Z,93.23
2017-12-16T08:18:56.056Z,93.29
2017-12-16T08:21:25.140Z,92.92
2017-12-16T08:23:54.289Z,92.73
2017-12-16T08:26:22.652Z,92.88
2017-12-16T08:28:51.044Z,93.14
2017-12-16T08:31:19.357Z,93.61
2017-12-16T08:33:48.056Z,93.91
2017-12-16T08:36:16.416Z,94.01
2017-12-16T08:38:44.736Z,93.92
2017-12-16T08:41:13.060Z,94.04
2017-12-16T08:43:41.792Z,94.06
2017-12-16T08:46:10.100Z,94.31
2017-12-16T08:48:38.411Z,94.36
2017-12-16T08:51:07.436Z,94.40
2017-12-16T08:53:35.748Z,94.34
2017-12-16T08:56:04.052Z,93.88
2017-12-16T08:58:32.411Z,93.97
2017-12-16T09:01:00.723Z,93.62
2017-12-16T09:03:29.043Z,93.39
2017-12-16T09:05:57.401Z,92.50
2017-12-16T09:08:26.472Z,92.44
2017-12-16T09:10:54.779Z,92.30
2017-12-16T09:13:23.239Z,91.79
2017-12-16T09:15:51.560Z,91.44
2017-12-16T09:18:20.093Z,91.35
2017-12-16T09:20:48.422Z,92.08
2017-12-16T09:23:16.724Z,92.43
2017-12-16T09:25:45.095Z,92.62
2017-12-16T09:28:13.777Z,92.24
2017-12-16T09:30:42.304Z,92.30
2017-12-16T09:33:10.653Z,91.67
2017-12-16T09:35:38.960Z,91.98
2017-12-16T09:38:07.891Z,91.70
2017-12-16T09:40:36.239Z,91.88
2017-12-16T09:43:04.554Z,91.86
2017-12-16T09:45:32.866Z,91.92
2017-12-16T09:48:01.926Z,91.32
2017-12-16T09:50:30.408Z,90.89
2017-12-16T09:53:01.996Z,91.08
2017-12-16T09:55:30.697Z,90.24
2017-12-16T09:57:59.793Z,90.12
2017-12-16T10:00:29.332Z,89.56
2017-12-16T10:02:57.645Z,90.04
2017-12-16T10:05:25.955Z,89.04
2017-12-16T10:07:54.632Z,89.83
2017-12-16T10:10:22.935Z,89.74
2017-12-16T10:12:51.235Z,88.48
2017-12-16T10:15:19.592Z,88.96
2017-12-16T10:17:47.902Z,89.02
2017-12-16T10:20:16.204Z,90.02
2017-12-16T10:22:44.837Z,90.05
2017-12-16T10:25:13.152Z,89.63
2017-12-16T10:27:41.460Z,89.45
2017-12-16T10:30:09.859Z,89.91
2017-12-16T10:32:38.932Z,90.57
2017-12-16T10:35:07.475Z,89.83
2017-12-16T10:37:35.833Z,89.51
2017-12-16T10:40:04.155Z,89.38
2017-12-16T10:42:32.499Z,89.57
2017-12-16T10:45:00.800Z,89.75
2017-12-16T10:47:29.811Z,89.55
2017-12-16T10:49:58.180Z,89.82
2017-12-16T10:52:26.500Z,88.68
2017-12-16T10:54:55.072Z,89.62
2017-12-16T10:57:23.880Z,89.92
2017-12-16T10:59:52.372Z,89.61
2017-12-16T11:02:20.791Z,89.14
2017-12-16T11:04:49.218Z,89.19
2017-12-16T11:07:17.584Z,89.33
2017-12-16T11:09:45.907Z,89.56
2017-12-16T11:12:15.852Z,89.52
2017-12-16T11:14:44.192Z,88.82
2017-12-16T11:17:12.554Z,88.38
2017-12-16T11:19:40.904Z,88.75
2017-12-16T11:22:09.264Z,89.54
2017-12-16T11:24:37.600Z,88.98
2017-12-16T11:27:05.932Z,88.26
2017-12-16T11:29:34.544Z,89.96
2017-12-16T11:32:02.861Z,88.78
2017-12-16T11:34:31.164Z,88.77
2017-12-16T11:36:59.604Z,87.41
2017-12-16T11:39:27.973Z,87.03
2017-12-16T11:41:56.284Z,86.59
2017-12-16T11:44:24.643Z,85.02
2017-12-16T11:46:53.131Z,85.61
2017-12-16T11:49:21.863Z,85.44
2017-12-16T11:51:50.173Z,83.69
2017-12-16T11:54:18.532Z,83.96
2017-12-16T11:56:46.896Z,82.70
2017-12-16T11:59:15.204Z,83.18
2017-12-16T12:01:44.031Z,83.01
2017-12-16T12:04:12.336Z,82.09
2017-12-16T12:06:40.643Z,82.68
2017-12-16T12:09:09.112Z,82.34
2017-12-16T12:11:37.436Z,80.70
2017-12-16T12:14:05.827Z,80.36
2017-12-16T12:16:34.277Z,80.36
2017-12-16T12:19:02.587Z,79.12
2017-12-16T12:21:31.280Z,79.49
2017-12-16T12:24:00.251Z,79.83
2017-12-16T12:26:29.220Z,78.04
2017-12-16T12:28:57.564Z,79.84
2017-12-16T12:31:25.939Z,80.60
2017-12-16T12:33:54.472Z,81.46
2017-12-16T12:36:22.800Z,82.32
2017-12-16T12:38:51.164Z,80.81
2017-12-16T12:41:19.533Z,81.06
2017-12-16T12:43:47.836Z,80.26
2017-12-16T12:46:16.136Z,81.54
2017-12-16T12:48:45.268Z,81.84
2017-12-16T12:51:13.569Z,81.66
2017-12-16T12:53:41.880Z,80.82
2017-12-16T12:56:10.358Z,79.83
2017-12-16T12:58:38.644Z,80.29
2017-12-16T13:01:06.948Z,80.22
2017-12-16T13:03:35.314Z,80.70
2017-12-16T13:06:03.616Z,80.40
2017-12-16T13:08:31.924Z,81.85
2017-12-16T13:11:00.268Z,82.01
2017-12-16T13:13:28.579Z,82.28
2017-12-16T13:15:57.672Z,81.88
2017-12-16T13:18:26.032Z,80.05
2017-12-16T13:20:54.337Z,79.74
2017-12-16T13:23:22.639Z,79.41
2017-12-16T13:25:50.987Z,80.05
2017-12-16T13:28:19.298Z,80.37
2017-12-16T13:30:47.595Z,80.67
2017-12-16T13:33:15.975Z,82.17
2017-12-16T13:35:44.721Z,81.54
2017-12-16T13:38:13.956Z,81.62
2017-12-16T13:40:42.267Z,81.58
2017-12-16T13:43:10.572Z,80.83
2017-12-16T13:45:39.703Z,80.49
2017-12-16T13:48:08.025Z,77.96
2017-12-16T13:50:36.735Z,78.14
2017-12-16T13:53:05.100Z,76.33
2017-12-16T13:55:33.564Z,76.67
2017-12-16T13:58:01.866Z,76.21
2017-12-16T14:00:30.988Z,75.89
2017-12-16T14:02:59.292Z,75.85
2017-12-16T14:05:27.595Z,74.60
2017-12-16T14:07:55.942Z,75.27
2017-12-16T14:10:24.244Z,76.35
2017-12-16T14:12:52.557Z,76.79
2017-12-16T14:15:21.733Z,76.56
2017-12-16T14:17:50.114Z,77.33
2017-12-16T14:20:18.423Z,77.48
2017-12-16T14:22:47.523Z,77.38
2017-12-16T14:25:15.828Z,78.00
2017-12-16T14:27:44.142Z,78.26
2017-12-16T14:30:12.479Z,77.95
2017-12-16T14:32:40.788Z,77.28
2017-12-16T14:35:09.208Z,78.22
2017-12-16T14:37:37.530Z,76.89
2017-12-16T14:40:05.867Z,77.36
2017-12-16T14:42:34.381Z,77.39
2017-12-16T14:45:02.700Z,77.29
2017-12-16T14:47:31.005Z,76.46
2017-12-16T14:49:59.389Z,78.03
2017-12-16T14:52:27.699Z,77.34
2017-12-16T14:54:56.013Z,77.60
2017-12-16T14:57:24.414Z,78.42
2017-12-16T14:59:53.500Z,78.74
2017-12-16T15:02:22.567Z,79.27
2017-12-16T15:04:50.975Z,79.22
2017-12-16T15:07:19.259Z,78.68
2017-12-16T15:09:47.580Z,78.96
2017-12-16T15:12:16.074Z,79.33
2017-12-16T15:14:44.434Z,79.05
2017-12-16T15:17:12.756Z,79.36
2017-12-16T15:19:41.192Z,79.26
2017-12-16T15:22:09.541Z,79.21
2017-12-16T15:24:37.864Z,79.15
2017-12-16T15:27:06.232Z,79.83
2017-12-16T15:29:34.545Z,80.49
2017-12-16T15:32:02.899Z,81.59
2017-12-16T15:34:31.276Z,84.35
2017-12-16T15:36:59.589Z,87.49
2017-12-16T15:39:27.907Z,89.77
2017-12-16T15:41:56.292Z,90.48
2017-12-16T15:44:24.595Z,91.42
2017-12-16T15:46:52.900Z,91.89
2017-12-16T15:49:21.571Z,92.03
2017-12-16T15:51:49.886Z,91.99
2017-12-16T15:54:18.229Z,92.38
2017-12-16T15:56:47.392Z,92.49
2017-12-16T15:59:16.420Z,92.62
2017-12-16T16:01:44.775Z,92.57
2017-12-16T16:04:13.206Z,92.45
2017-12-16T16:06:41.541Z,92.22
2017-12-16T16:09:09.849Z,91.98
2017-12-16T16:11:38.233Z,91.73
2017-12-16T16:14:08.293Z,91.41
2017-12-16T16:16:36.621Z,91.17
2017-12-16T16:19:05.790Z,90.87
2017-12-16T16:21:34.196Z,90.74
2017-12-16T16:24:03.329Z,90.77
2017-12-16T16:26:31.722Z,91.06
2017-12-16T16:29:00.136Z,91.47
2017-12-16T16:31:28.509Z,91.88
2017-12-16T16:33:56.864Z,91.83
2017-12-16T16:36:26.242Z,91.48
2017-12-16T16:38:55.129Z,91.36
2017-12-16T16:41:24.109Z,90.40
2017-12-16T16:43:52.928Z,89.87
2017-12-16T16:46:21.247Z,89.71
2017-12-16T16:48:49.560Z,89.55
2017-12-16T16:51:17.938Z,90.14
2017-12-16T16:53:46.300Z,90.97
2017-12-16T16:56:14.673Z,91.04
2017-12-16T16:58:43.048Z,91.41
2017-12-16T17:01:11.369Z,91.12
2017-12-16T17:03:39.744Z,91.86
2017-12-16T17:06:08.145Z,91.96
2017-12-16T17:08:36.612Z,91.87
2017-12-16T17:11:05.015Z,92.00
2017-12-16T17:13:33.708Z,91.85
2017-12-16T17:16:02.061Z,91.44
2017-12-16T17:18:30.464Z,91.33
2017-12-16T17:20:58.780Z,91.29
2017-12-16T17:23:27.916Z,90.99
2017-12-16T17:25:56.273Z,90.73
2017-12-16T17:28:24.590Z,90.64
2017-12-16T17:30:53.051Z,90.47
2017-12-16T17:33:21.397Z,90.36
2017-12-16T17:35:50.511Z,90.32
2017-12-16T17:38:18.955Z,90.35
2017-12-16T17:40:48.073Z,90.37
2017-12-16T17:43:16.492Z,90.54
2017-12-16T17:45:44.903Z,90.37
2017-12-16T17:48:13.216Z,90.35
2017-12-16T17:50:41.619Z,90.47
2017-12-16T17:53:09.973Z,90.89
2017-12-16T17:55:38.299Z,91.03
2017-12-16T17:58:06.652Z,91.16
2017-12-16T18:00:35.014Z,91.18
2017-12-16T18:03:03.340Z,91.44
2017-12-16T18:05:31.704Z,91.48
2017-12-16T18:08:00.067Z,91.57
2017-12-16T18:10:28.381Z,91.53
2017-12-16T18:12:56.760Z,90.71
2017-12-16T18:15:25.075Z,91.20
2017-12-16T18:17:53.437Z,91.52
2017-12-16T18:20:22.595Z,92.04
2017-12-16T18:22:50.969Z,92.21
2017-12-16T18:25:19.341Z,91.96
2017-12-16T18:27:47.722Z,91.74
2017-12-16T18:30:16.054Z,91.26
2017-12-16T18:32:45.177Z,90.98
2017-12-16T18:35:13.548Z,90.68
2017-12-16T18:37:41.855Z,90.31
2017-12-16T18:40:10.175Z,90.17
2017-12-16T18:42:38.698Z,90.34
2017-12-16T18:45:07.068Z,90.51
2017-12-16T18:47:35.385Z,90.85
2017-12-16T18:50:03.788Z,90.99
2017-12-16T18:52:32.103Z,90.95
2017-12-16T18:55:00.471Z,90.73
2017-12-16T18:57:28.828Z,91.14
2017-12-16T18:59:57.207Z,91.58
2017-12-16T19:02:26.329Z,91.53
2017-12-16T19:04:54.846Z,91.61
2017-12-16T19:07:23.218Z,91.51
2017-12-16T19:09:52.539Z,91.77
2017-12-16T19:12:20.947Z,92.31
2017-12-16T19:14:49.254Z,92.22
2017-12-16T19:17:17.607Z,92.19
2017-12-16T19:19:45.972Z,92.25
2017-12-16T19:22:14.283Z,92.41
2017-12-16T19:24:42.642Z,92.67
2017-12-16T19:27:11.072Z,93.05
2017-12-16T19:29:39.417Z,93.17
2017-12-16T19:32:07.780Z,92.91
2017-12-16T19:34:36.196Z,92.82
2017-12-16T19:37:04.560Z,92.11
2017-12-16T19:39:32.931Z,91.35
2017-12-16T19:42:01.304Z,91.18
2017-12-16T19:44:29.695Z,90.60
2017-12-16T19:46:58.156Z,90.15
2017-12-16T19:49:26.471Z,89.85
2017-12-16T19:51:54.827Z,89.24
2017-12-16T19:54:23.176Z,88.10
2017-12-16T19:56:52.305Z,87.22
2017-12-16T19:59:21.112Z,87.27
2017-12-16T20:01:49.536Z,87.15
2017-12-16T20:04:17.900Z,87.26
2017-12-16T20:06:46.285Z,87.21
2017-12-16T20:09:14.652Z,87.25
2017-12-16T20:11:43.056Z,87.17
2017-12-16T20:14:11.419Z,86.77
2017-12-16T20:16:40.139Z,86.92
2017-12-16T20:19:08.837Z,86.94
2017-12-16T20:21:37.222Z,86.84
2017-12-16T20:24:05.556Z,87.11
2017-12-16T20:26:33.976Z,87.52
2017-12-16T20:29:02.331Z,88.61
2017-12-16T20:31:31.465Z,89.01
2017-12-16T20:33:59.919Z,88.91
2017-12-16T20:36:28.319Z,88.44
2017-12-16T20:38:56.759Z,88.57
2017-12-16T20:41:25.155Z,87.72
2017-12-16T20:43:53.523Z,87.20
2017-12-16T20:46:21.920Z,87.34
2017-12-16T20:48:50.390Z,87.32
2017-12-16T20:51:19.516Z,87.65
2017-12-16T20:53:47.878Z,87.68
2017-12-16T20:56:16.180Z,87.57
2017-12-16T20:58:44.537Z,87.34
2017-12-16T21:01:13.556Z,87.25
2017-12-16T21:03:42.188Z,87.94
2017-12-16T21:06:12.650Z,87.54
2017-12-16T21:08:41.378Z,87.95
2017-12-16T21:11:10.235Z,87.63
2017-12-16T21:13:39.216Z,87.91
2017-12-16T21:16:07.578Z,87.82
2017-12-16T21:18:36.432Z,88.06
2017-12-16T21:21:09.612Z,88.48
2017-12-16T21:23:38.499Z,89.37
2017-12-16T21:26:07.039Z,89.67
2017-12-16T21:28:35.409Z,89.63
2017-12-16T21:31:03.847Z,89.39
2017-12-16T21:33:32.210Z,89.33
2017-12-16T21:36:00.563Z,89.00
2017-12-16T21:38:28.987Z,89.03
2017-12-16T21:40:57.390Z,88.95
2017-12-16T21:43:25.775Z,89.24
2017-12-16T21:45:54.240Z,89.24
2017-12-16T21:48:22.591Z,89.01
2017-12-16T21:50:51.655Z,88.93
2017-12-16T21:53:20.053Z,88.96
2017-12-16T21:55:51.392Z,88.76
2017-12-16T21:58:19.815Z,88.76
2017-12-16T22:00:49.315Z,88.81
2017-12-16T22:03:17.777Z,88.71
2017-12-16T22:05:47.667Z,88.11
2017-12-16T22:08:16.768Z,88.04
2017-12-16T22:10:45.675Z,88.26
2017-12-16T22:13:14.032Z,88.37
2017-12-16T22:15:42.965Z,88.73
2017-12-16T22:18:13.139Z,89.13
2017-12-16T22:20:41.519Z,89.07
2017-12-16T22:23:09.802Z,89.21
2017-12-16T22:25:38.751Z,89.68
2017-12-16T22:28:07.183Z,90.26
2017-12-16T22:30:36.272Z,90.18
2017-12-16T22:33:04.695Z,90.07
2017-12-16T22:35:33.131Z,90.58
2017-12-16T22:38:01.551Z,90.67
2017-12-16T22:40:32.475Z,90.94
2017-12-16T22:43:00.831Z,91.14
2017-12-16T22:45:29.347Z,91.62
2017-12-16T22:47:57.764Z,91.52
2017-12-16T22:50:26.885Z,91.33
2017-12-16T22:52:55.275Z,91.16
2017-12-16T22:55:23.688Z,90.99
2017-12-16T22:57:52.057Z,90.41
2017-12-16T23:00:20.622Z,89.79
2017-12-16T23:02:49.011Z,89.67
2017-12-16T23:05:17.357Z,89.65
2017-12-16T23:07:45.774Z,89.86
2017-12-16T23:10:14.155Z,90.45
2017-12-16T23:12:42.565Z,90.62
2017-12-16T23:15:10.982Z,90.65
2017-12-16T23:17:39.342Z,90.66
2017-12-16T23:20:07.708Z,90.51
2017-12-16T23:22:36.072Z,90.56
2017-12-16T23:25:05.203Z,90.58
2017-12-16T23:27:34.317Z,90.36
2017-12-16T23:30:03.911Z,90.05
2017-12-16T23:32:32.275Z,90.09
2017-12-16T23:35:00.642Z,89.93
2017-12-16T23:37:29.539Z,89.93
2017-12-16T23:39:57.934Z,89.60
2017-12-16T23:42:26.290Z,89.43
2017-12-16T23:44:54.918Z,89.28
2017-12-16T23:47:23.482Z,89.20
2017-12-16T23:49:51.820Z,89.72
2017-12-16T23:52:20.223Z,89.90
2017-12-16T23:54:48.535Z,89.98
2017-12-16T23:57:16.886Z,89.85
2017-12-16T23:59:46.015Z,89.85
